createdAt,value
2022-10-10T00:01:28.654Z,11.91
2022-10-10T00:03:56.062Z,12.24
2022-10-10T00:06:23.662Z,12.20
2022-10-10T00:08:51.260Z,12.19
2022-10-10T00:11:20.626Z,12.19
2022-10-10T00:13:48.371Z,12.20
2022-10-10T00:16:15.876Z,12.19
2022-10-10T00:18:43.311Z,12.00
2022-10-10T00:21:11.016Z,11.79
2022-10-10T00:23:38.462Z,11.67
2022-10-10T00:26:08.998Z,12.01
2022-10-10T00:28:40.387Z,12.04
2022-10-10T00:31:09.340Z,12.09
2022-10-10T00:33:37.558Z,12.07
2022-10-10T00:36:06.703Z,12.11
2022-10-10T00:38:34.484Z,12.02
2022-10-10T00:41:02.168Z,11.54
2022-10-10T00:43:31.328Z,12.04
2022-10-10T00:45:59.071Z,11.98
2022-10-10T00:48:36.224Z,11.93
2022-10-10T00:51:11.770Z,12.09
2022-10-10T00:53:46.479Z,12.00
2022-10-10T00:56:15.517Z,11.42
2022-10-10T00:58:46.493Z,11.55
2022-10-10T01:01:13.596Z,11.97
2022-10-10T01:03:40.860Z,11.80
2022-10-10T01:06:08.443Z,11.89
2022-10-10T01:08:36.354Z,11.63
2022-10-10T01:11:21.527Z,11.93
2022-10-10T01:14:16.068Z,11.97
2022-10-10T01:17:18.263Z,11.95
2022-10-10T01:20:22.582Z,11.95
2022-10-10T01:23:23.804Z,11.94
2022-10-10T01:26:09.149Z,11.91
2022-10-10T01:29:02.868Z,11.91
2022-10-10T01:31:33.540Z,11.77
2022-10-10T01:34:17.346Z,11.81
2022-10-10T01:37:07.337Z,11.76
2022-10-10T01:40:03.693Z,11.74
2022-10-10T01:42:53.596Z,11.74
2022-10-10T01:45:21.239Z,11.69
2022-10-10T01:47:50.023Z,10.04
2022-10-10T01:50:22.225Z,11.21
2022-10-10T01:53:10.428Z,11.72
2022-10-10T01:55:52.878Z,11.71
2022-10-10T01:58:22.810Z,11.66
2022-10-10T02:01:04.156Z,11.61
2022-10-10T02:03:37.964Z,11.27
2022-10-10T02:06:12.768Z,11.55
2022-10-10T02:08:49.435Z,11.61
2022-10-10T02:11:16.522Z,11.51
2022-10-10T02:13:56.064Z,11.39
2022-10-10T02:16:28.100Z,11.58
2022-10-10T02:18:57.996Z,11.33
2022-10-10T02:21:25.299Z,11.51
2022-10-10T02:23:55.882Z,11.08
2022-10-10T02:26:25.249Z,11.56
2022-10-10T02:29:10.575Z,11.45
2022-10-10T02:32:00.200Z,11.65
2022-10-10T02:34:33.820Z,11.56
2022-10-10T02:37:07.505Z,11.49
2022-10-10T02:39:39.879Z,11.56
2022-10-10T02:42:10.002Z,11.43
2022-10-10T02:44:38.994Z,11.47
2022-10-10T02:47:07.041Z,11.51
2022-10-10T02:49:35.376Z,11.40
2022-10-10T02:52:03.714Z,11.46
2022-10-10T02:54:30.997Z,11.34
2022-10-10T02:56:58.144Z,11.47
2022-10-10T02:59:25.175Z,11.46
2022-10-10T03:01:52.249Z,11.47
2022-10-10T03:04:19.342Z,11.01
2022-10-10T03:06:46.782Z,11.34
2022-10-10T03:09:13.884Z,11.34
2022-10-10T03:11:40.943Z,11.05
2022-10-10T03:14:08.003Z,11.41
2022-10-10T03:16:35.034Z,11.45
2022-10-10T03:19:03.533Z,11.47
2022-10-10T03:21:30.548Z,11.42
2022-10-10T03:23:57.692Z,11.34
2022-10-10T03:26:24.753Z,11.36
2022-10-10T03:28:52.026Z,11.32
2022-10-10T03:31:19.194Z,11.17
2022-10-10T03:33:46.375Z,11.30
2022-10-10T03:36:13.564Z,11.26
2022-10-10T03:38:41.132Z,11.27
2022-10-10T03:41:08.370Z,11.20
2022-10-10T03:43:35.446Z,11.29
2022-10-10T03:46:02.364Z,11.20
2022-10-10T03:48:29.526Z,11.29
2022-10-10T03:50:56.568Z,11.13
2022-10-10T03:53:23.622Z,11.17
2022-10-10T03:55:50.722Z,11.34
2022-10-10T03:58:21.512Z,11.03
2022-10-10T04:00:56.356Z,11.44
2022-10-10T04:03:24.077Z,11.17
2022-10-10T04:05:52.369Z,11.17
2022-10-10T04:08:20.011Z,11.29
2022-10-10T04:10:51.835Z,11.27
2022-10-10T04:13:19.360Z,10.73
2022-10-10T04:15:46.563Z,11.09
2022-10-10T04:18:13.905Z,11.12
2022-10-10T04:20:40.909Z,11.16
2022-10-10T04:23:07.907Z,11.18
2022-10-10T04:25:34.970Z,11.09
2022-10-10T04:28:02.142Z,11.16
2022-10-10T04:30:35.129Z,11.09
2022-10-10T04:33:02.204Z,10.71
2022-10-10T04:35:29.362Z,11.19
2022-10-10T04:37:56.451Z,11.09
2022-10-10T04:40:26.628Z,11.03
2022-10-10T04:42:55.128Z,10.99
2022-10-10T04:45:26.569Z,10.43
2022-10-10T04:47:54.838Z,11.05
2022-10-10T04:50:23.149Z,10.63
2022-10-10T04:52:50.454Z,11.18
2022-10-10T04:55:18.227Z,10.50
2022-10-10T04:57:45.267Z,11.17
2022-10-10T05:00:14.048Z,11.22
2022-10-10T05:02:41.257Z,11.32
2022-10-10T05:05:09.172Z,11.21
2022-10-10T05:07:36.283Z,11.33
2022-10-10T05:10:04.104Z,10.92
2022-10-10T05:12:31.144Z,11.42
2022-10-10T05:14:58.217Z,10.81
2022-10-10T05:17:25.449Z,11.20
2022-10-10T05:19:52.553Z,11.53
2022-10-10T05:22:19.502Z,11.58
2022-10-10T05:24:46.434Z,11.57
2022-10-10T05:27:13.430Z,11.55
2022-10-10T05:29:40.510Z,11.37
2022-10-10T05:32:10.283Z,11.53
2022-10-10T05:34:38.523Z,11.59
2022-10-10T05:37:05.769Z,11.54
2022-10-10T05:39:32.853Z,11.28
2022-10-10T05:41:59.830Z,11.25
2022-10-10T05:44:27.164Z,11.61
2022-10-10T05:46:54.322Z,11.63
2022-10-10T05:49:21.445Z,11.56
2022-10-10T05:51:48.501Z,11.71
2022-10-10T05:54:15.476Z,11.68
2022-10-10T05:56:42.509Z,11.60
2022-10-10T05:59:09.612Z,11.48
2022-10-10T06:01:37.222Z,11.54
2022-10-10T06:04:04.513Z,10.84
2022-10-10T06:06:31.821Z,11.56
2022-10-10T06:08:59.700Z,11.11
2022-10-10T06:11:26.870Z,11.40
2022-10-10T06:13:57.415Z,11.61
2022-10-10T06:16:26.646Z,11.61
2022-10-10T06:18:56.749Z,11.65
2022-10-10T06:21:25.246Z,11.52
2022-10-10T06:23:52.646Z,11.69
2022-10-10T06:26:19.965Z,12.03
2022-10-10T06:28:47.163Z,12.30
2022-10-10T06:31:15.794Z,12.62
2022-10-10T06:33:45.548Z,12.82
2022-10-10T06:36:14.365Z,13.18
2022-10-10T06:38:44.775Z,14.39
2022-10-10T06:41:12.989Z,15.98
2022-10-10T06:43:41.491Z,17.38
2022-10-10T06:46:09.801Z,18.01
2022-10-10T06:48:36.983Z,18.10
2022-10-10T06:51:07.855Z,18.03
2022-10-10T06:53:35.877Z,18.85
2022-10-10T06:56:03.443Z,20.22
2022-10-10T06:58:30.691Z,20.97
2022-10-10T07:01:00.407Z,21.47
2022-10-10T07:03:28.967Z,21.43
2022-10-10T07:05:58.216Z,20.80
2022-10-10T07:08:26.206Z,20.11
2022-10-10T07:10:53.217Z,19.43
2022-10-10T07:13:20.580Z,18.79
2022-10-10T07:15:47.725Z,18.14
2022-10-10T07:18:15.000Z,16.94
2022-10-10T07:20:42.001Z,16.89
2022-10-10T07:23:09.258Z,16.90
2022-10-10T07:25:39.651Z,17.27
2022-10-10T07:28:07.934Z,17.20
2022-10-10T07:30:40.722Z,17.17
2022-10-10T07:33:07.776Z,17.00
2022-10-10T07:35:34.854Z,16.87
2022-10-10T07:38:01.883Z,16.55
2022-10-10T07:40:29.184Z,16.33
2022-10-10T07:42:56.374Z,16.03
2022-10-10T07:45:23.496Z,15.80
2022-10-10T07:47:53.222Z,15.92
2022-10-10T07:50:20.741Z,16.59
2022-10-10T07:52:47.645Z,17.16
2022-10-10T07:55:14.702Z,17.69
2022-10-10T07:57:41.785Z,18.05
2022-10-10T08:00:10.431Z,19.10
2022-10-10T08:02:40.532Z,20.20
2022-10-10T08:05:07.940Z,21.65
2022-10-10T08:07:35.309Z,23.12
2022-10-10T08:10:02.659Z,24.31
2022-10-10T08:12:31.300Z,25.45
2022-10-10T08:14:59.686Z,26.71
2022-10-10T08:17:26.886Z,27.34
2022-10-10T08:19:54.021Z,28.18
2022-10-10T08:22:20.999Z,28.85
2022-10-10T08:24:48.111Z,30.05
2022-10-10T08:27:17.829Z,29.86
2022-10-10T08:29:45.101Z,29.46
2022-10-10T08:32:12.199Z,29.14
2022-10-10T08:34:39.166Z,29.96
2022-10-10T08:37:06.103Z,29.47
2022-10-10T08:39:33.413Z,30.23
2022-10-10T08:42:02.806Z,30.98
2022-10-10T08:44:32.914Z,30.90
2022-10-10T08:47:11.202Z,31.06
2022-10-10T08:49:50.161Z,30.91
2022-10-10T08:52:55.359Z,30.26
2022-10-10T08:55:34.584Z,29.16
2022-10-10T08:58:12.412Z,29.05
2022-10-10T09:00:45.951Z,28.86
2022-10-10T09:03:31.061Z,27.65
2022-10-10T09:06:17.690Z,27.25
2022-10-10T09:08:59.779Z,26.25
2022-10-10T09:11:55.662Z,25.29
2022-10-10T09:14:37.706Z,23.79
2022-10-10T09:20:09.791Z,21.93
2022-10-10T09:22:48.717Z,20.38
2022-10-10T09:25:26.784Z,20.24
2022-10-10T09:28:20.584Z,19.70
2022-10-10T09:30:52.854Z,19.73
2022-10-10T09:33:28.426Z,19.92
2022-10-10T09:35:57.961Z,19.85
2022-10-10T09:38:57.545Z,19.49
2022-10-10T09:41:39.574Z,18.18
2022-10-10T09:44:11.687Z,18.74
2022-10-10T09:46:38.845Z,18.72
2022-10-10T09:49:06.212Z,18.84
2022-10-10T09:51:34.491Z,18.33
2022-10-10T09:54:02.399Z,18.93
2022-10-10T09:56:54.850Z,18.22
2022-10-10T09:59:42.006Z,18.76
2022-10-10T10:02:14.054Z,18.43
2022-10-10T10:04:41.114Z,18.56
2022-10-10T10:07:29.359Z,18.61
2022-10-10T10:10:11.055Z,18.52
2022-10-10T10:12:41.516Z,18.36
2022-10-10T10:15:21.986Z,18.24
2022-10-10T10:18:17.084Z,17.95
2022-10-10T10:20:46.422Z,17.32
2022-10-10T10:23:33.231Z,17.51
2022-10-10T10:26:07.087Z,17.34
2022-10-10T10:28:41.518Z,17.16
2022-10-10T10:31:31.187Z,16.71
2022-10-10T10:34:29.022Z,16.98
2022-10-10T10:36:56.035Z,16.73
2022-10-10T10:40:09.473Z,16.71
2022-10-10T10:43:11.447Z,15.65
2022-10-10T10:45:49.340Z,16.55
2022-10-10T10:48:39.700Z,16.38
2022-10-10T10:51:18.895Z,16.19
2022-10-10T10:53:54.811Z,16.19
2022-10-10T10:56:38.363Z,16.10
2022-10-10T11:02:07.820Z,15.87
2022-10-10T11:05:24.861Z,15.80
2022-10-10T11:07:53.336Z,15.64
2022-10-10T11:10:43.425Z,15.68
2022-10-10T11:13:29.177Z,15.79
2022-10-10T11:16:47.888Z,16.19
2022-10-10T11:19:15.198Z,16.43
2022-10-10T11:21:46.094Z,16.24
2022-10-10T11:24:30.435Z,16.07
2022-10-10T11:27:02.716Z,15.95
2022-10-10T11:29:49.229Z,15.98
2022-10-10T11:32:22.333Z,16.31
2022-10-10T11:35:16.398Z,16.47
2022-10-10T11:37:52.289Z,16.22
2022-10-10T11:40:36.777Z,15.22
2022-10-10T11:43:08.465Z,15.99
2022-10-10T11:45:45.488Z,15.86
2022-10-10T11:48:18.367Z,15.76
2022-10-10T11:50:49.900Z,15.54
2022-10-10T11:53:32.365Z,15.23
2022-10-10T11:56:10.466Z,15.54
2022-10-10T11:58:44.574Z,15.40
2022-10-10T12:01:21.264Z,15.31
2022-10-10T12:03:51.409Z,15.22
2022-10-10T12:06:33.538Z,14.58
2022-10-10T12:09:03.967Z,12.98
2022-10-10T12:11:45.465Z,14.71
2022-10-10T12:14:18.261Z,14.99
2022-10-10T12:16:46.193Z,15.01
2022-10-10T12:19:19.492Z,14.99
2022-10-10T12:22:02.551Z,15.00
2022-10-10T12:24:38.665Z,14.42
2022-10-10T12:27:07.903Z,14.87
2022-10-10T12:29:56.832Z,14.83
2022-10-10T12:32:40.259Z,14.70
2022-10-10T12:35:27.497Z,14.69
2022-10-10T12:38:09.778Z,14.57
2022-10-10T12:41:10.385Z,14.37
2022-10-10T12:43:45.270Z,14.40
2022-10-10T12:46:26.468Z,14.30
2022-10-10T12:48:58.647Z,13.98
2022-10-10T12:51:26.815Z,14.16
2022-10-10T12:53:57.496Z,13.95
2022-10-10T12:56:38.758Z,13.98
2022-10-10T12:59:16.671Z,13.98
2022-10-10T13:01:47.087Z,13.99
2022-10-10T13:04:17.719Z,13.29
2022-10-10T13:06:47.159Z,13.88
2022-10-10T13:09:21.539Z,13.82
2022-10-10T13:12:01.859Z,13.88
2022-10-10T13:14:44.324Z,13.82
2022-10-10T13:17:23.932Z,13.81
2022-10-10T13:19:52.332Z,13.69
2022-10-10T13:22:20.763Z,13.59
2022-10-10T13:24:48.916Z,13.61
2022-10-10T13:27:28.490Z,13.62
2022-10-10T13:29:56.111Z,13.56
2022-10-10T13:32:29.101Z,12.97
2022-10-10T13:34:59.862Z,12.95
2022-10-10T13:37:27.975Z,13.25
2022-10-10T13:39:55.745Z,13.39
2022-10-10T13:42:38.978Z,13.23
2022-10-10T13:45:30.200Z,13.31
2022-10-10T13:48:00.699Z,13.21
2022-10-10T13:50:33.258Z,13.15
2022-10-10T13:53:32.271Z,13.18
2022-10-10T13:56:09.185Z,13.15
2022-10-10T13:59:05.213Z,13.03
2022-10-10T14:01:49.512Z,12.49
2022-10-10T14:04:19.236Z,12.94
2022-10-10T14:06:55.388Z,12.31
2022-10-10T14:09:25.714Z,12.60
2022-10-10T14:11:54.960Z,12.59
2022-10-10T14:14:32.455Z,12.70
2022-10-10T14:17:04.739Z,12.63
2022-10-10T14:19:33.257Z,11.55
2022-10-10T14:22:00.347Z,12.53
2022-10-10T14:24:27.448Z,12.43
2022-10-10T14:26:54.538Z,12.46
2022-10-10T14:29:22.013Z,12.27
2022-10-10T14:31:49.152Z,11.73
2022-10-10T14:34:16.506Z,12.28
2022-10-10T14:36:50.332Z,12.22
2022-10-10T14:39:18.841Z,12.32
2022-10-10T14:41:46.756Z,11.81
2022-10-10T14:44:13.744Z,11.85
2022-10-10T14:46:41.777Z,10.94
2022-10-10T14:49:19.618Z,12.10
2022-10-10T14:51:48.059Z,12.01
2022-10-10T14:54:15.153Z,11.59
2022-10-10T14:57:06.789Z,11.97
2022-10-10T14:59:47.420Z,11.44
2022-10-10T15:02:24.090Z,11.93
2022-10-10T15:04:51.347Z,11.40
2022-10-10T15:07:19.298Z,11.15
2022-10-10T15:12:38.449Z,11.61
2022-10-10T15:15:06.768Z,11.56
2022-10-10T15:17:34.611Z,11.01
2022-10-10T15:20:03.500Z,11.46
2022-10-10T15:22:31.072Z,11.04
2022-10-10T15:24:58.111Z,11.41
2022-10-10T15:27:25.348Z,11.31
2022-10-10T15:29:52.288Z,10.97
2022-10-10T15:32:19.272Z,11.28
2022-10-10T15:34:50.177Z,11.36
2022-10-10T15:37:17.832Z,11.35
2022-10-10T15:39:45.906Z,11.29
2022-10-10T15:42:18.592Z,11.13
2022-10-10T15:44:49.623Z,11.14
2022-10-10T15:47:17.873Z,11.25
2022-10-10T15:49:45.361Z,11.19
2022-10-10T15:52:12.675Z,11.18
2022-10-10T15:54:39.828Z,11.17
2022-10-10T15:57:07.017Z,11.17
2022-10-10T15:59:36.832Z,11.09
2022-10-10T16:02:06.300Z,10.40
2022-10-10T16:04:33.579Z,10.92
2022-10-10T16:09:47.653Z,10.92
2022-10-10T16:12:14.727Z,10.69
2022-10-10T16:14:41.798Z,10.78
2022-10-10T16:17:08.820Z,10.22
2022-10-10T16:19:35.819Z,10.58
2022-10-10T16:22:02.963Z,10.81
2022-10-10T16:24:30.710Z,10.74
2022-10-10T16:26:59.585Z,10.31
2022-10-10T16:29:26.633Z,10.72
2022-10-10T16:31:53.653Z,10.57
2022-10-10T16:34:21.842Z,10.58
2022-10-10T16:36:48.884Z,10.59
2022-10-10T16:39:15.958Z,10.43
2022-10-10T16:41:48.192Z,10.48
2022-10-10T16:44:16.243Z,10.48
2022-10-10T16:46:43.587Z,10.39
2022-10-10T16:49:12.908Z,10.32
2022-10-10T16:51:40.181Z,10.30
2022-10-10T16:54:07.581Z,10.33
2022-10-10T16:56:35.485Z,10.00
2022-10-10T16:59:03.000Z,9.74
2022-10-10T17:01:30.543Z,10.25
2022-10-10T17:04:02.046Z,10.11
2022-10-10T17:06:35.341Z,10.19
2022-10-10T17:09:02.985Z,9.13
2022-10-10T17:11:30.351Z,10.16
2022-10-10T17:13:58.079Z,9.97
2022-10-10T17:17:28.744Z,10.08
2022-10-10T17:19:14.679Z,9.54
2022-10-10T17:21:41.663Z,10.06
2022-10-10T17:24:08.747Z,10.02
2022-10-10T17:26:35.781Z,9.84
2022-10-10T17:29:02.907Z,9.57
2022-10-10T17:31:29.942Z,9.83
2022-10-10T17:33:57.785Z,9.75
2022-10-10T17:36:26.832Z,9.73
2022-10-10T17:39:00.469Z,9.71
2022-10-10T17:41:28.721Z,9.68
2022-10-10T17:43:56.187Z,9.75
2022-10-10T17:46:35.278Z,9.76
2022-10-10T17:49:05.901Z,9.71
2022-10-10T17:51:34.637Z,9.69
2022-10-10T17:54:02.855Z,9.66
2022-10-10T17:56:30.499Z,9.48
2022-10-10T17:58:59.669Z,9.56
2022-10-10T18:01:26.937Z,9.47
2022-10-10T18:03:53.999Z,9.20
2022-10-10T18:06:22.764Z,9.27
2022-10-10T18:08:51.771Z,8.74
2022-10-10T18:11:21.328Z,9.30
2022-10-10T18:13:48.448Z,9.25
2022-10-10T18:16:19.086Z,8.75
2022-10-10T18:18:51.056Z,9.18
2022-10-10T18:21:23.158Z,9.18
2022-10-10T18:23:50.560Z,8.71
2022-10-10T18:26:20.727Z,8.50
2022-10-10T18:28:48.635Z,8.50
2022-10-10T18:31:18.096Z,9.05
2022-10-10T18:33:45.830Z,9.06
2022-10-10T18:36:19.669Z,9.04
2022-10-10T18:38:48.667Z,8.33
2022-10-10T18:41:20.470Z,8.93
2022-10-10T18:43:49.175Z,8.93
2022-10-10T18:46:20.616Z,8.32
2022-10-10T18:48:53.552Z,8.84
2022-10-10T18:51:27.256Z,8.57
2022-10-10T18:54:03.919Z,8.45
2022-10-10T18:56:32.779Z,8.66
2022-10-10T18:59:02.647Z,8.58
2022-10-10T19:01:33.345Z,8.54
2022-10-10T19:04:00.467Z,7.94
2022-10-10T19:06:27.401Z,8.46
2022-10-10T19:08:56.552Z,8.37
2022-10-10T19:11:31.756Z,7.80
2022-10-10T19:14:00.936Z,8.16
2022-10-10T19:16:28.299Z,8.23
2022-10-10T19:18:58.644Z,8.07
2022-10-10T19:21:29.182Z,8.00
2022-10-10T19:23:56.363Z,8.31
2022-10-10T19:26:23.472Z,8.21
2022-10-10T19:28:50.456Z,8.09
2022-10-10T19:31:19.294Z,8.23
2022-10-10T19:33:52.144Z,8.22
2022-10-10T19:36:19.262Z,8.07
2022-10-10T19:38:46.650Z,8.22
2022-10-10T19:41:14.442Z,8.21
2022-10-10T19:43:42.915Z,7.74
2022-10-10T19:46:13.005Z,8.26
2022-10-10T19:48:40.544Z,8.18
2022-10-10T19:51:10.125Z,8.06
2022-10-10T19:53:38.121Z,8.02
2022-10-10T19:56:08.861Z,8.05
2022-10-10T19:58:37.160Z,7.55
2022-10-10T20:01:13.926Z,8.03
2022-10-10T20:03:41.402Z,7.90
2022-10-10T20:06:08.535Z,7.95
2022-10-10T20:08:35.628Z,7.97
2022-10-10T20:11:02.858Z,7.67
2022-10-10T20:13:32.175Z,7.86
2022-10-10T20:16:01.656Z,7.95
2022-10-10T20:18:29.760Z,8.00
2022-10-10T20:20:56.713Z,7.90
2022-10-10T20:23:25.155Z,7.82
2022-10-10T20:25:52.823Z,7.70
2022-10-10T20:28:20.958Z,7.82
2022-10-10T20:30:50.841Z,7.77
2022-10-10T20:33:19.620Z,7.66
2022-10-10T20:35:49.356Z,7.71
2022-10-10T20:38:19.322Z,7.70
2022-10-10T20:40:46.443Z,7.55
2022-10-10T20:43:14.879Z,6.48
2022-10-10T20:45:42.035Z,7.66
2022-10-10T20:48:10.067Z,7.60
2022-10-10T20:50:38.183Z,7.80
2022-10-10T20:53:06.698Z,7.69
2022-10-10T20:55:33.832Z,7.83
2022-10-10T20:58:01.108Z,7.72
2022-10-10T21:00:28.081Z,7.81
2022-10-10T21:02:56.162Z,7.52
2022-10-10T21:05:23.349Z,7.23
2022-10-10T21:07:50.388Z,7.61
2022-10-10T21:10:17.374Z,7.34
2022-10-10T21:12:44.294Z,7.46
2022-10-10T21:15:11.562Z,7.39
2022-10-10T21:17:38.988Z,7.26
2022-10-10T21:20:07.372Z,7.45
2022-10-10T21:22:34.339Z,7.45
2022-10-10T21:25:01.389Z,7.44
2022-10-10T21:27:30.318Z,7.27
2022-10-10T21:29:57.204Z,7.08
2022-10-10T21:32:26.513Z,7.18
2022-10-10T21:34:56.415Z,7.17
2022-10-10T21:37:23.983Z,7.02
2022-10-10T21:39:50.949Z,7.08
2022-10-10T21:42:18.108Z,6.99
2022-10-10T21:44:45.121Z,6.99
2022-10-10T21:47:12.104Z,6.88
2022-10-10T21:49:39.153Z,6.97
2022-10-10T21:52:06.075Z,7.08
2022-10-10T21:54:32.958Z,7.04
2022-10-10T21:56:59.911Z,7.02
2022-10-10T21:59:30.377Z,7.02
2022-10-10T22:01:57.610Z,6.85
2022-10-10T22:04:28.828Z,6.82
2022-10-10T22:06:56.433Z,6.83
2022-10-10T22:09:23.476Z,6.84
2022-10-10T22:11:50.741Z,6.86
2022-10-10T22:14:17.953Z,6.84
2022-10-10T22:16:44.886Z,6.27
2022-10-10T22:19:11.796Z,6.63
2022-10-10T22:21:38.816Z,6.80
2022-10-10T22:24:07.448Z,6.76
2022-10-10T22:26:35.457Z,6.39
2022-10-10T22:29:03.231Z,6.66
2022-10-10T22:31:30.317Z,6.60
2022-10-10T22:33:57.655Z,6.75
2022-10-10T22:36:24.898Z,5.60
2022-10-10T22:38:52.284Z,6.75
2022-10-10T22:41:19.247Z,6.76
2022-10-10T22:43:46.254Z,6.67
2022-10-10T22:46:13.730Z,6.11
2022-10-10T22:48:40.752Z,6.02
2022-10-10T22:51:16.310Z,6.57
2022-10-10T22:53:44.763Z,6.41
2022-10-10T22:56:15.618Z,6.48
2022-10-10T22:58:43.443Z,6.66
2022-10-10T23:01:15.281Z,6.66
2022-10-10T23:03:42.830Z,6.61
2022-10-10T23:06:10.135Z,6.12
2022-10-10T23:08:37.373Z,6.58
2022-10-10T23:11:04.620Z,5.92
2022-10-10T23:13:32.196Z,6.53
2022-10-10T23:15:59.447Z,6.26
2022-10-10T23:18:28.513Z,6.45
2022-10-10T23:20:55.623Z,5.73
2022-10-10T23:23:22.671Z,6.32
2022-10-10T23:25:49.976Z,6.40
2022-10-10T23:28:17.824Z,6.06
2022-10-10T23:30:47.202Z,6.24
2022-10-10T23:33:15.681Z,6.37
2022-10-10T23:35:42.655Z,6.35
2022-10-10T23:38:09.620Z,6.49
2022-10-10T23:40:36.830Z,6.37
2022-10-10T23:43:04.094Z,6.50
2022-10-10T23:45:31.381Z,5.99
2022-10-10T23:47:58.385Z,5.95
2022-10-10T23:50:25.452Z,6.48
2022-10-10T23:52:52.556Z,6.50
2022-10-10T23:56:13.247Z,6.14
2022-10-10T23:58:53.352Z,6.39
